createdAt,value
2022-12-04T00:01:21.493Z,1.43
2022-12-04T00:03:48.213Z,1.34
2022-12-04T00:06:18.835Z,1.45
2022-12-04T00:08:47.039Z,1.63
2022-12-04T00:11:21.489Z,1.67
2022-12-04T00:13:48.377Z,1.67
2022-12-04T00:16:19.395Z,1.42
2022-12-04T00:18:46.803Z,1.37
2022-12-04T00:21:16.075Z,1.50
2022-12-04T00:23:43.760Z,1.52
2022-12-04T00:26:15.060Z,1.55
2022-12-04T00:28:42.472Z,1.41
2022-12-04T00:31:13.379Z,1.52
2022-12-04T00:33:40.377Z,1.25
2022-12-04T00:36:12.211Z,1.27
2022-12-04T00:38:40.049Z,1.45
2022-12-04T00:41:12.888Z,1.47
2022-12-04T00:43:39.759Z,1.35
2022-12-04T00:46:06.826Z,1.42
2022-12-04T00:48:33.691Z,1.47
2022-12-04T00:51:13.677Z,1.46
2022-12-04T00:53:40.716Z,1.47
2022-12-04T00:56:14.789Z,1.21
2022-12-04T00:58:41.946Z,1.14
2022-12-04T01:01:16.516Z,1.13
2022-12-04T01:03:44.569Z,1.27
2022-12-04T01:06:25.539Z,1.25
2022-12-04T01:08:55.255Z,1.30
2022-12-04T01:11:25.390Z,1.35
2022-12-04T01:13:52.223Z,1.34
2022-12-04T01:16:27.280Z,1.34
2022-12-04T01:18:53.892Z,1.25
2022-12-04T01:21:20.515Z,1.18
2022-12-04T01:23:47.340Z,1.23
2022-12-04T01:26:14.380Z,1.08
2022-12-04T01:28:41.071Z,1.13
2022-12-04T01:31:15.801Z,1.11
2022-12-04T01:33:43.510Z,1.29
2022-12-04T01:36:20.530Z,1.27
2022-12-04T01:38:47.576Z,1.24
2022-12-04T01:41:19.102Z,1.26
2022-12-04T01:43:45.733Z,1.23
2022-12-04T01:46:12.414Z,1.33
2022-12-04T01:48:53.405Z,1.21
2022-12-04T01:51:32.078Z,1.20
2022-12-04T01:54:09.145Z,1.27
2022-12-04T01:56:44.428Z,1.15
2022-12-04T01:59:17.123Z,1.12
2022-12-04T02:01:55.978Z,1.07
2022-12-04T02:04:23.319Z,1.02
2022-12-04T02:06:49.779Z,1.06
2022-12-04T02:09:19.373Z,1.20
2022-12-04T02:11:58.401Z,1.13
2022-12-04T02:14:44.491Z,1.05
2022-12-04T02:17:25.196Z,0.89
2022-12-04T02:20:18.759Z,0.93
2022-12-04T02:23:09.736Z,1.10
2022-12-04T02:26:25.676Z,1.08
2022-12-04T02:29:23.466Z,1.09
2022-12-04T02:32:09.456Z,0.86
2022-12-04T02:35:08.015Z,1.11
2022-12-04T02:37:45.699Z,1.14
2022-12-04T02:40:29.285Z,1.21
2022-12-04T02:43:17.901Z,1.23
2022-12-04T02:46:00.282Z,1.21
2022-12-04T02:48:32.234Z,1.23
2022-12-04T02:51:02.164Z,1.27
2022-12-04T02:53:36.179Z,1.20
2022-12-04T02:56:12.671Z,1.31
2022-12-04T02:59:31.671Z,1.33
2022-12-04T03:02:10.409Z,1.27
2022-12-04T03:04:39.659Z,1.15
2022-12-04T03:07:15.094Z,0.99
2022-12-04T03:09:55.058Z,0.89
2022-12-04T03:13:05.267Z,0.90
2022-12-04T03:15:43.677Z,0.63
2022-12-04T03:18:28.036Z,0.63
2022-12-04T03:21:02.920Z,0.77
2022-12-04T03:24:03.220Z,0.66
2022-12-04T03:26:46.956Z,0.73
2022-12-04T03:29:25.835Z,0.90
2022-12-04T03:32:12.086Z,0.99
2022-12-04T03:35:13.889Z,1.00
2022-12-04T03:38:01.844Z,1.06
2022-12-04T03:40:45.048Z,1.03
2022-12-04T03:43:23.802Z,1.15
2022-12-04T03:46:03.230Z,1.20
2022-12-04T03:48:42.795Z,1.16
2022-12-04T03:51:18.224Z,1.11
2022-12-04T03:54:10.255Z,1.09
2022-12-04T03:56:44.690Z,0.96
2022-12-04T03:59:20.641Z,0.81
2022-12-04T04:01:51.011Z,0.72
2022-12-04T04:04:30.309Z,0.78
2022-12-04T04:07:13.938Z,0.82
2022-12-04T04:09:47.167Z,0.83
2022-12-04T04:12:23.951Z,0.86
2022-12-04T04:15:17.336Z,1.03
2022-12-04T04:18:06.247Z,0.97
2022-12-04T04:21:07.953Z,0.91
2022-12-04T04:24:01.695Z,0.83
2022-12-04T04:26:34.487Z,0.71
2022-12-04T04:29:01.308Z,0.67
2022-12-04T04:31:43.539Z,0.56
2022-12-04T04:34:39.872Z,0.59
2022-12-04T04:37:37.285Z,0.63
2022-12-04T04:40:29.453Z,0.56
2022-12-04T04:43:15.835Z,0.27
2022-12-04T04:45:52.532Z,0.38
2022-12-04T04:48:25.855Z,0.22
2022-12-04T04:50:53.902Z,0.23
2022-12-04T04:53:29.172Z,0.43
2022-12-04T04:55:57.459Z,0.40
2022-12-04T04:58:24.001Z,0.41
2022-12-04T05:01:09.740Z,0.28
2022-12-04T05:03:36.457Z,0.29
2022-12-04T05:06:03.075Z,0.43
2022-12-04T05:08:30.156Z,0.40
2022-12-04T05:10:56.726Z,0.33
2022-12-04T05:13:23.249Z,0.50
2022-12-04T05:16:03.077Z,0.46
2022-12-04T05:18:30.297Z,0.59
2022-12-04T05:20:56.881Z,0.51
2022-12-04T05:23:24.001Z,0.49
2022-12-04T05:25:50.622Z,0.59
2022-12-04T05:28:17.396Z,0.42
2022-12-04T05:30:54.829Z,0.52
2022-12-04T05:33:21.378Z,0.56
2022-12-04T05:35:58.845Z,0.55
2022-12-04T05:38:25.730Z,0.60
2022-12-04T05:40:52.339Z,0.69
2022-12-04T05:43:19.404Z,0.66
2022-12-04T05:45:46.019Z,0.64
2022-12-04T05:48:12.463Z,0.57
2022-12-04T05:50:39.229Z,0.64
2022-12-04T05:53:05.729Z,0.58
2022-12-04T05:55:32.353Z,0.55
2022-12-04T05:57:59.234Z,0.66
2022-12-04T06:00:26.747Z,0.67
2022-12-04T06:02:53.288Z,0.65
2022-12-04T06:05:19.952Z,0.75
2022-12-04T06:07:46.572Z,0.65
2022-12-04T06:10:13.133Z,0.61
2022-12-04T06:12:39.660Z,0.71
2022-12-04T06:15:06.813Z,0.71
2022-12-04T06:17:33.281Z,0.88
2022-12-04T06:20:00.156Z,0.99
2022-12-04T06:22:26.944Z,0.97
2022-12-04T06:24:53.423Z,1.02
2022-12-04T06:27:28.343Z,1.03
2022-12-04T06:29:55.608Z,0.81
2022-12-04T06:32:22.566Z,0.81
2022-12-04T06:34:54.314Z,0.85
2022-12-04T06:37:23.992Z,0.75
2022-12-04T06:39:50.473Z,0.69
2022-12-04T06:42:17.397Z,0.65
2022-12-04T06:44:43.864Z,0.61
2022-12-04T06:47:10.360Z,0.66
2022-12-04T06:49:36.837Z,0.86
2022-12-04T06:52:03.811Z,0.82
2022-12-04T06:54:30.348Z,0.81
2022-12-04T06:56:56.819Z,0.91
2022-12-04T06:59:23.751Z,1.02
2022-12-04T07:01:50.330Z,0.70
2022-12-04T07:04:16.924Z,0.79
2022-12-04T07:06:43.493Z,0.58
2022-12-04T07:09:18.780Z,0.55
2022-12-04T07:11:46.060Z,0.70
2022-12-04T07:14:13.704Z,0.76
2022-12-04T07:16:42.895Z,0.96
2022-12-04T07:19:13.950Z,0.82
2022-12-04T07:21:41.571Z,0.76
2022-12-04T07:24:11.656Z,0.86
2022-12-04T07:26:38.112Z,0.81
2022-12-04T07:29:04.616Z,0.78
2022-12-04T07:31:31.272Z,0.80
2022-12-04T07:33:58.916Z,0.76
2022-12-04T07:36:26.396Z,0.62
2022-12-04T07:38:55.738Z,0.65
2022-12-04T07:41:22.379Z,0.71
2022-12-04T07:43:48.940Z,0.83
2022-12-04T07:46:22.698Z,0.85
2022-12-04T07:48:49.301Z,0.88
2022-12-04T07:51:20.822Z,0.98
2022-12-04T07:53:49.079Z,0.97
2022-12-04T07:56:16.685Z,1.02
2022-12-04T07:58:44.139Z,0.97
2022-12-04T08:01:13.480Z,1.04
2022-12-04T08:03:48.371Z,1.00
2022-12-04T08:06:19.365Z,1.04
2022-12-04T08:08:47.619Z,1.06
2022-12-04T08:11:18.053Z,0.90
2022-12-04T08:13:45.768Z,0.81
2022-12-04T08:16:14.630Z,0.95
2022-12-04T08:18:46.387Z,1.08
2022-12-04T08:21:19.203Z,1.11
2022-12-04T08:23:45.878Z,1.13
2022-12-04T08:26:13.605Z,1.11
2022-12-04T08:28:41.380Z,1.13
2022-12-04T08:31:21.775Z,1.09
2022-12-04T08:33:50.937Z,1.09
2022-12-04T08:36:20.612Z,1.13
2022-12-04T08:38:48.843Z,1.26
2022-12-04T08:41:19.465Z,1.21
2022-12-04T08:43:45.949Z,1.09
2022-12-04T08:46:16.425Z,1.11
2022-12-04T08:48:43.716Z,1.24
2022-12-04T08:51:20.970Z,1.26
2022-12-04T08:53:48.481Z,1.34
2022-12-04T08:56:15.128Z,1.49
2022-12-04T08:58:41.816Z,1.49
2022-12-04T09:01:11.950Z,1.43
2022-12-04T09:03:39.344Z,1.50
2022-12-04T09:06:08.048Z,1.40
2022-12-04T09:08:36.090Z,1.37
2022-12-04T09:11:15.995Z,1.36
2022-12-04T09:13:43.865Z,1.50
2022-12-04T09:16:16.247Z,1.58
2022-12-04T09:18:43.326Z,1.47
2022-12-04T09:21:13.622Z,1.43
2022-12-04T09:23:40.924Z,1.39
2022-12-04T09:26:29.008Z,1.49
2022-12-04T09:28:58.928Z,1.57
2022-12-04T09:31:26.201Z,1.64
2022-12-04T09:33:53.110Z,1.71
2022-12-04T09:36:20.212Z,1.75
2022-12-04T09:38:50.185Z,1.71
2022-12-04T09:41:50.286Z,1.63
2022-12-04T09:44:26.904Z,1.79
2022-12-04T09:47:02.302Z,1.97
2022-12-04T09:49:50.818Z,1.88
2022-12-04T09:52:46.891Z,1.83
2022-12-04T09:55:27.576Z,1.88
2022-12-04T09:58:02.467Z,1.87
2022-12-04T10:00:31.554Z,1.95
2022-12-04T10:03:06.385Z,1.82
2022-12-04T10:05:53.269Z,1.71
2022-12-04T10:08:31.575Z,1.76
2022-12-04T10:11:13.943Z,1.86
2022-12-04T10:14:22.588Z,1.98
2022-12-04T10:17:20.322Z,1.87
2022-12-04T10:20:08.323Z,1.53
2022-12-04T10:23:18.300Z,1.69
2022-12-04T10:25:44.784Z,1.81
2022-12-04T10:28:27.505Z,1.91
2022-12-04T10:30:59.491Z,1.87
2022-12-04T10:33:55.205Z,1.81
2022-12-04T10:36:30.053Z,2.03
2022-12-04T10:39:03.572Z,2.14
2022-12-04T10:41:49.725Z,2.27
2022-12-04T10:44:19.416Z,2.12
2022-12-04T10:46:47.103Z,2.01
2022-12-04T10:49:25.801Z,1.95
2022-12-04T10:51:52.782Z,2.06
2022-12-04T10:54:43.775Z,2.04
2022-12-04T10:57:13.882Z,2.11
2022-12-04T10:59:55.935Z,2.17
2022-12-04T11:02:28.994Z,2.38
2022-12-04T11:05:02.816Z,2.30
2022-12-04T11:07:35.896Z,2.29
2022-12-04T11:10:22.010Z,2.36
2022-12-04T11:12:56.645Z,2.38
2022-12-04T11:15:24.346Z,2.32
2022-12-04T11:17:52.541Z,2.31
2022-12-04T11:20:27.456Z,2.27
2022-12-04T11:22:58.099Z,2.23
2022-12-04T11:25:36.930Z,2.32
2022-12-04T11:28:04.784Z,2.46
2022-12-04T11:30:37.023Z,2.45
2022-12-04T11:33:15.880Z,2.53
2022-12-04T11:35:42.652Z,2.45
2022-12-04T11:38:17.265Z,2.47
2022-12-04T11:40:58.888Z,2.53
2022-12-04T11:43:29.345Z,2.43
2022-12-04T11:46:01.674Z,2.46
2022-12-04T11:48:31.642Z,2.50
2022-12-04T11:51:28.573Z,2.50
2022-12-04T11:54:17.310Z,2.45
2022-12-04T11:56:58.748Z,2.38
2022-12-04T11:59:59.726Z,2.34
2022-12-04T12:02:48.246Z,2.33
2022-12-04T12:05:53.873Z,2.34
2022-12-04T12:09:16.855Z,2.37
2022-12-04T12:12:24.559Z,2.34
2022-12-04T12:15:20.935Z,2.43
2022-12-04T12:18:36.429Z,2.40
2022-12-04T12:21:24.088Z,2.30
2022-12-04T12:24:26.097Z,2.30
2022-12-04T12:27:41.154Z,2.29
2022-12-04T12:30:20.633Z,2.35
2022-12-04T12:32:53.896Z,2.35
2022-12-04T12:35:29.964Z,2.37
2022-12-04T12:38:06.343Z,2.48
2022-12-04T12:40:58.597Z,2.57
2022-12-04T12:43:35.064Z,2.67
2022-12-04T12:46:19.814Z,2.74
2022-12-04T12:48:58.869Z,2.93
2022-12-04T12:51:55.088Z,2.98
2022-12-04T12:54:31.290Z,3.06
2022-12-04T12:57:11.932Z,3.12
2022-12-04T12:59:53.943Z,2.84
2022-12-04T13:02:32.389Z,2.77
2022-12-04T13:05:09.066Z,2.89
2022-12-04T13:07:47.748Z,2.47
2022-12-04T13:10:47.077Z,2.58
2022-12-04T13:13:44.474Z,2.58
2022-12-04T13:16:33.848Z,2.73
2022-12-04T13:19:25.029Z,2.75
2022-12-04T13:22:23.242Z,2.58
2022-12-04T13:25:46.699Z,2.47
2022-12-04T13:28:31.308Z,2.51
2022-12-04T13:31:25.803Z,2.62
2022-12-04T13:34:18.535Z,2.69
2022-12-04T13:37:30.738Z,2.58
2022-12-04T13:40:09.182Z,2.64
2022-12-04T13:42:36.195Z,2.75
2022-12-04T13:45:26.566Z,2.85
2022-12-04T13:48:02.169Z,2.89
2022-12-04T13:50:38.951Z,2.74
2022-12-04T13:53:06.790Z,2.75
2022-12-04T13:55:39.710Z,2.64
2022-12-04T13:58:12.183Z,2.53
2022-12-04T14:00:43.109Z,2.40
2022-12-04T14:03:30.080Z,2.35
2022-12-04T14:05:56.867Z,2.51
2022-12-04T14:08:28.183Z,2.51
2022-12-04T14:11:09.168Z,2.60
2022-12-04T14:13:52.295Z,2.73
2022-12-04T14:16:26.807Z,2.80
2022-12-04T14:19:00.677Z,2.96
2022-12-04T14:21:40.561Z,2.83
2022-12-04T14:24:35.060Z,2.84
2022-12-04T14:27:34.552Z,2.94
2022-12-04T14:30:02.413Z,3.05
2022-12-04T14:32:34.244Z,3.05
2022-12-04T14:35:02.652Z,2.98
2022-12-04T14:37:40.588Z,2.84
2022-12-04T14:40:20.238Z,2.82
2022-12-04T14:42:49.910Z,2.69
2022-12-04T14:45:52.307Z,2.61
2022-12-04T14:48:33.329Z,2.45
2022-12-04T14:51:21.597Z,2.38
2022-12-04T14:54:29.438Z,2.27
2022-12-04T14:57:33.853Z,2.24
2022-12-04T15:00:01.554Z,2.36
2022-12-04T15:02:41.572Z,2.44
2022-12-04T15:05:19.803Z,2.54
2022-12-04T15:07:54.517Z,2.53
2022-12-04T15:10:47.853Z,2.61
2022-12-04T15:13:31.976Z,2.57
2022-12-04T15:16:15.481Z,2.51
2022-12-04T15:18:53.290Z,2.65
2022-12-04T15:21:19.954Z,2.69
2022-12-04T15:23:46.488Z,2.83
2022-12-04T15:26:20.927Z,2.88
2022-12-04T15:29:07.067Z,2.64
2022-12-04T15:31:46.944Z,2.61
2022-12-04T15:34:19.104Z,2.69
2022-12-04T15:36:54.809Z,2.90
2022-12-04T15:39:29.105Z,2.96
2022-12-04T15:42:06.897Z,2.86
2022-12-04T15:44:35.417Z,2.80
2022-12-04T15:47:16.917Z,2.80
2022-12-04T15:49:43.377Z,2.78
2022-12-04T15:52:09.844Z,2.80
2022-12-04T15:54:41.458Z,2.69
2022-12-04T15:57:38.591Z,2.59
2022-12-04T16:00:22.765Z,2.50
2022-12-04T16:02:50.309Z,2.44
2022-12-04T16:05:25.783Z,2.54
2022-12-04T16:08:00.340Z,2.68
2022-12-04T16:10:32.756Z,2.70
2022-12-04T16:13:03.310Z,2.79
2022-12-04T16:15:47.759Z,2.93
2022-12-04T16:18:14.532Z,3.03
2022-12-04T16:20:41.528Z,2.91
2022-12-04T16:23:09.275Z,2.77
2022-12-04T16:25:35.748Z,2.69
2022-12-04T16:28:02.259Z,2.67
2022-12-04T16:30:33.519Z,2.65
2022-12-04T16:33:00.096Z,2.73
2022-12-04T16:35:26.800Z,2.76
2022-12-04T16:37:53.385Z,2.73
2022-12-04T16:40:19.885Z,2.72
2022-12-04T16:42:46.437Z,2.76
2022-12-04T16:45:26.202Z,2.83
2022-12-04T16:47:52.930Z,2.86
2022-12-04T16:50:19.594Z,2.77
2022-12-04T16:52:46.180Z,2.78
2022-12-04T16:55:36.090Z,2.86
2022-12-04T16:58:04.702Z,2.78
2022-12-04T17:00:31.878Z,2.71
2022-12-04T17:03:01.634Z,2.78
2022-12-04T17:05:33.291Z,2.82
2022-12-04T17:08:00.559Z,2.77
2022-12-04T17:10:29.350Z,2.76
2022-12-04T17:12:56.043Z,2.69
2022-12-04T17:15:22.626Z,2.71
2022-12-04T17:17:50.449Z,2.74
2022-12-04T17:20:20.204Z,2.69
2022-12-04T17:22:47.827Z,2.60
2022-12-04T17:25:15.996Z,2.59
2022-12-04T17:27:43.309Z,2.49
2022-12-04T17:30:12.016Z,2.56
2022-12-04T17:32:38.797Z,2.68
2022-12-04T17:35:07.877Z,2.81
2022-12-04T17:37:35.905Z,2.96
2022-12-04T17:40:03.345Z,2.96
2022-12-04T17:42:29.820Z,2.95
2022-12-04T17:44:56.511Z,2.82
2022-12-04T17:47:23.419Z,2.64
2022-12-04T17:49:49.961Z,2.76
2022-12-04T17:52:18.712Z,2.83
2022-12-04T17:54:45.610Z,2.93
2022-12-04T17:57:12.105Z,3.05
2022-12-04T17:59:38.824Z,3.12
2022-12-04T18:02:05.283Z,3.13
2022-12-04T18:04:31.887Z,3.02
2022-12-04T18:06:58.437Z,3.06
2022-12-04T18:09:25.028Z,3.10
2022-12-04T18:11:51.663Z,3.01
2022-12-04T18:14:23.704Z,2.96
2022-12-04T18:16:53.791Z,2.89
2022-12-04T18:19:24.692Z,2.95
2022-12-04T18:21:51.910Z,2.99
2022-12-04T18:24:18.790Z,2.98
2022-12-04T18:26:48.933Z,2.95
2022-12-04T18:29:19.971Z,2.94
2022-12-04T18:31:47.519Z,2.96
2022-12-04T18:34:14.723Z,3.02
2022-12-04T18:36:42.024Z,3.10
2022-12-04T18:39:14.642Z,3.10
2022-12-04T18:41:41.868Z,3.23
2022-12-04T18:44:08.381Z,3.28
2022-12-04T18:46:35.505Z,3.29
2022-12-04T18:49:02.351Z,3.18
2022-12-04T18:51:39.265Z,3.16
2022-12-04T18:54:13.713Z,3.06
2022-12-04T18:56:40.754Z,3.01
2022-12-04T18:59:17.645Z,3.01
2022-12-04T19:01:44.798Z,2.88
2022-12-04T19:04:14.149Z,2.82
2022-12-04T19:06:44.396Z,2.77
2022-12-04T19:09:16.721Z,2.63
2022-12-04T19:11:44.617Z,2.59
2022-12-04T19:14:22.309Z,2.76
2022-12-04T19:16:50.475Z,2.90
2022-12-04T19:19:17.987Z,2.88
2022-12-04T19:21:44.741Z,2.82
2022-12-04T19:24:12.327Z,2.83
2022-12-04T19:26:39.796Z,2.87
2022-12-04T19:29:07.822Z,2.93
2022-12-04T19:31:37.736Z,2.97
2022-12-04T19:34:06.171Z,3.07
2022-12-04T19:36:34.618Z,3.00
2022-12-04T19:39:02.361Z,2.78
2022-12-04T19:41:31.264Z,2.82
2022-12-04T19:44:00.449Z,2.93
2022-12-04T19:46:32.919Z,2.81
2022-12-04T19:49:04.079Z,2.82
2022-12-04T19:51:33.051Z,2.75
2022-12-04T19:54:01.013Z,2.82
2022-12-04T19:56:30.484Z,3.00
2022-12-04T19:59:00.718Z,2.99
2022-12-04T20:01:30.214Z,2.85
2022-12-04T20:03:58.956Z,2.89
2022-12-04T20:06:28.336Z,2.82
2022-12-04T20:09:03.479Z,2.77
2022-12-04T20:11:30.932Z,2.77
2022-12-04T20:14:01.238Z,2.77
2022-12-04T20:16:31.290Z,2.83
2022-12-04T20:18:58.938Z,2.78
2022-12-04T20:21:30.105Z,2.86
2022-12-04T20:24:00.406Z,2.92
2022-12-04T20:26:31.405Z,2.97
2022-12-04T20:29:00.598Z,2.90
2022-12-04T20:31:33.848Z,2.71
2022-12-04T20:34:03.383Z,2.75
2022-12-04T20:36:35.536Z,2.84
2022-12-04T20:39:02.203Z,2.98
2022-12-04T20:41:30.595Z,3.08
2022-12-04T20:44:01.450Z,3.12
2022-12-04T20:46:35.040Z,3.10
2022-12-04T20:49:06.616Z,3.25
2022-12-04T20:51:37.455Z,3.23
2022-12-04T20:54:04.924Z,3.25
2022-12-04T20:56:35.683Z,3.07
2022-12-04T20:59:10.072Z,3.10
2022-12-04T21:01:37.741Z,3.26
2022-12-04T21:04:05.630Z,3.29
2022-12-04T21:06:37.205Z,3.26
2022-12-04T21:09:15.700Z,3.27
2022-12-04T21:11:46.359Z,3.25
2022-12-04T21:14:41.911Z,3.16
2022-12-04T21:17:16.463Z,3.13
2022-12-04T21:19:43.158Z,3.26
2022-12-04T21:22:09.669Z,3.43
2022-12-04T21:24:38.423Z,3.48
2022-12-04T21:27:07.722Z,3.50
2022-12-04T21:29:34.788Z,3.50
2022-12-04T21:32:01.628Z,3.52
2022-12-04T21:34:28.165Z,3.57
2022-12-04T21:36:54.739Z,3.61
2022-12-04T21:39:23.797Z,3.61
2022-12-04T21:42:09.744Z,3.58
2022-12-04T21:44:36.600Z,3.46
2022-12-04T21:47:03.359Z,3.31
2022-12-04T21:49:29.838Z,3.17
2022-12-04T21:51:58.107Z,3.29
2022-12-04T21:54:27.712Z,3.35
2022-12-04T21:56:55.021Z,3.26
2022-12-04T21:59:22.170Z,3.37
2022-12-04T22:01:48.814Z,3.33
2022-12-04T22:04:15.896Z,3.21
2022-12-04T22:06:43.024Z,3.12
2022-12-04T22:09:12.282Z,3.16
2022-12-04T22:11:43.661Z,3.24
2022-12-04T22:14:11.654Z,3.38
2022-12-04T22:16:42.671Z,3.38
2022-12-04T22:19:11.724Z,3.47
2022-12-04T22:21:38.892Z,3.52
2022-12-04T22:24:06.333Z,3.54
2022-12-04T22:26:33.432Z,3.60
2022-12-04T22:29:00.363Z,3.62
2022-12-04T22:31:29.809Z,3.70
2022-12-04T22:34:00.513Z,3.73
2022-12-04T22:36:31.425Z,3.69
2022-12-04T22:39:09.329Z,3.67
2022-12-04T22:41:36.201Z,3.57
2022-12-04T22:44:02.872Z,3.39
2022-12-04T22:46:29.522Z,3.28
2022-12-04T22:48:56.237Z,3.38
2022-12-04T22:51:22.943Z,3.52
2022-12-04T22:53:56.514Z,3.41
2022-12-04T22:56:30.276Z,3.25
2022-12-04T22:58:58.551Z,3.09
2022-12-04T23:01:31.446Z,2.99
2022-12-04T23:03:59.395Z,3.04
2022-12-04T23:06:31.365Z,2.98
2022-12-04T23:09:12.515Z,3.14
2022-12-04T23:11:40.462Z,3.33
2022-12-04T23:14:13.406Z,3.33
2022-12-04T23:16:40.532Z,3.45
2022-12-04T23:19:10.694Z,3.48
2022-12-04T23:21:37.352Z,3.44
2022-12-04T23:24:04.472Z,3.31
2022-12-04T23:26:37.951Z,3.13
2022-12-04T23:29:23.257Z,3.17
2022-12-04T23:31:52.545Z,3.24
2022-12-04T23:34:19.120Z,3.13
2022-12-04T23:36:45.620Z,3.26
2022-12-04T23:39:12.167Z,3.43
2022-12-04T23:41:38.724Z,3.35
2022-12-04T23:44:05.265Z,3.21
2022-12-04T23:46:33.177Z,3.28
2022-12-04T23:49:01.344Z,3.29
2022-12-04T23:51:28.308Z,3.38
2022-12-04T23:53:55.112Z,3.52
2022-12-04T23:56:25.829Z,3.46
2022-12-04T23:58:55.698Z,3.49
